Time;durP1;ratioP1;P1;durP2;ratioP2;P2;SDS_P1;SDS_P2;PMS_P1;PMS_P2;Temp;Humidity;BMP_temperature;BMP_pressure;BME280_temperature;BME280_humidity;BME280_pressure;Samples;Min_cycle;Max_cycle;Signal;HPM_P1;HPM_P2
2023/04/20 00:01:53;;;;;;;14.10;12.00;;;;;;;10.08;100.00;99726.34;5114220;28;20521;-75
2023/04/20 00:04:20;;;;;;;14.77;12.35;;;;;;;9.54;100.00;99601.09;5132034;28;20080;-75
2023/04/20 00:06:45;;;;;;;15.73;11.77;;;;;;;10.01;100.00;99712.19;5114073;28;20069;-75
2023/04/20 00:09:12;;;;;;;19.58;14.00;;;;;;;10.30;100.00;99708.81;5113944;28;20055;-75
2023/04/20 00:11:37;;;;;;;162.60;114.70;;;;;;;9.75;100.00;99640.19;5113985;28;20582;-75
2023/04/20 00:14:03;;;;;;;83.65;58.28;;;;;;;9.94;100.00;99708.19;5114040;28;20023;-75
2023/04/20 00:16:28;;;;;;;48.50;36.28;;;;;;;10.15;100.00;99694.84;5131877;28;20045;-75
2023/04/20 00:18:54;;;;;;;33.47;23.75;;;;;;;9.69;100.00;99642.91;5132099;28;20035;-75
2023/04/20 00:21:22;;;;;;;25.88;21.30;;;;;;;9.40;100.00;99596.44;5132004;28;20600;-75
2023/04/20 00:23:51;;;;;;;23.67;17.67;;;;;;;10.04;100.00;99706.19;5114452;28;20027;-75
2023/04/20 00:26:17;;;;;;;22.00;17.13;;;;;;;9.69;100.00;99651.38;5127587;28;20481;-75
2023/04/20 00:28:43;;;;;;;24.08;16.70;;;;;;;9.99;100.00;99713.09;5114296;28;20033;-74
2023/04/20 00:31:09;;;;;;;23.30;16.98;;;;;;;10.11;100.00;99702.59;5132817;27;20065;-75
2023/04/20 00:33:34;;;;;;;21.65;17.30;;;;;;;9.58;100.00;99644.09;5136348;27;20031;-74
2023/04/20 00:36:00;;;;;;;17.27;14.95;;;;;;;9.80;100.00;99646.00;5117322;27;20122;-74
2023/04/20 00:38:27;;;;;;;19.63;15.27;;;;;;;9.60;100.00;99654.19;5136004;27;20059;-75
2023/04/20 00:40:56;;;;;;;19.33;14.75;;;;;;;9.74;100.00;99682.53;5114348;27;20023;-73
2023/04/20 00:43:21;;;;;;;21.67;14.05;;;;;;;10.08;100.00;99728.06;5117857;27;20063;-74
2023/04/20 00:45:47;;;;;;;21.27;15.18;;;;;;;9.90;100.00;99698.16;5117530;27;20019;-75
2023/04/20 00:48:13;;;;;;;21.45;13.45;;;;;;;9.73;100.00;99665.63;5117767;27;20483;-75
2023/04/20 00:50:39;;;;;;;20.52;12.85;;;;;;;10.27;100.00;99727.50;5117510;27;20037;-75
2023/04/20 00:53:06;;;;;;;20.40;13.07;;;;;;;10.16;100.00;99741.41;5135305;27;20071;-75
2023/04/20 00:55:31;;;;;;;20.80;13.77;;;;;;;10.07;100.00;99737.41;5135991;27;20027;-75
2023/04/20 00:57:57;;;;;;;17.58;12.02;;;;;;;10.12;100.00;99727.94;5116917;27;20034;-75
2023/04/20 01:00:24;;;;;;;15.77;12.25;;;;;;;10.13;100.00;99714.38;5117252;27;20043;-75
2023/04/20 01:02:49;;;;;;;15.52;11.57;;;;;;;10.04;100.00;99723.97;5117235;27;20027;-74
2023/04/20 01:05:15;;;;;;;19.63;12.80;;;;;;;10.07;100.00;99722.16;5134699;27;20039;-74
2023/04/20 01:07:40;;;;;;;14.48;11.32;;;;;;;10.22;100.00;99739.50;5135325;27;20031;-75
2023/04/20 01:10:07;;;;;;;16.35;11.73;;;;;;;9.80;100.00;99694.22;5135259;27;20031;-73
2023/04/20 01:12:33;;;;;;;14.82;11.13;;;;;;;9.96;100.00;99744.50;5116237;27;20039;-74
2023/04/20 01:14:58;;;;;;;16.88;12.75;;;;;;;9.78;100.00;99712.03;5135272;27;20023;-74
2023/04/20 01:17:24;;;;;;;17.80;12.63;;;;;;;9.60;100.00;99689.72;5117157;27;20028;-75
2023/04/20 01:19:50;;;;;;;17.35;13.50;;;;;;;9.86;100.00;99742.28;5117097;27;20053;-75
2023/04/20 01:22:20;;;;;;;17.73;13.15;;;;;;;9.80;100.00;99733.13;5135863;27;20030;-76
2023/04/20 01:24:46;;;;;;;17.10;13.20;;;;;;;9.09;100.00;99653.94;5117059;27;20023;-77
2023/04/20 01:27:15;;;;;;;11.98;10.13;;;;;;;9.40;100.00;99732.56;5116955;27;20401;-74
2023/04/20 01:29:42;;;;;;;16.00;11.57;;;;;;;9.78;100.00;99772.13;5116672;27;20054;-75
2023/04/20 01:32:08;;;;;;;13.45;11.30;;;;;;;9.63;100.00;99772.56;5134884;27;20117;-75
2023/04/20 01:34:33;;;;;;;14.73;11.38;;;;;;;9.29;100.00;99743.00;5116332;27;20031;-76
2023/04/20 01:36:59;;;;;;;11.27;9.40;;;;;;;9.36;100.00;99812.16;5134877;27;20042;-76
2023/04/20 01:39:25;;;;;;;13.00;10.23;;;;;;;9.55;100.00;99823.50;5135136;27;20027;-76
2023/04/20 01:41:50;;;;;;;13.98;10.88;;;;;;;9.37;100.00;99812.13;5134160;27;20042;-75
2023/04/20 01:44:16;;;;;;;14.32;11.27;;;;;;;9.53;100.00;99836.22;5116839;27;20031;-76
2023/04/20 01:46:41;;;;;;;14.27;11.25;;;;;;;9.51;100.00;99834.59;5134445;27;20023;-76
2023/04/20 01:49:07;;;;;;;13.65;10.90;;;;;;;9.20;100.00;99775.38;5134681;27;20134;-76
2023/04/20 01:51:34;;;;;;;13.73;11.27;;;;;;;9.70;100.00;99842.56;5135033;27;20031;-76
2023/04/20 01:54:00;;;;;;;15.02;10.27;;;;;;;9.56;100.00;99789.66;5134710;27;20031;-76
2023/04/20 01:56:26;;;;;;;13.65;10.20;;;;;;;9.16;100.00;99733.22;5116519;27;20573;-76
2023/04/20 01:58:51;;;;;;;14.20;11.23;;;;;;;9.53;100.00;99790.56;5134165;27;20051;-75
2023/04/20 02:01:17;;;;;;;13.05;9.90;;;;;;;9.50;100.00;99798.25;5116922;27;20153;-76
2023/04/20 02:03:42;;;;;;;16.30;11.40;;;;;;;9.63;100.00;99799.59;5116713;27;20035;-75
2023/04/20 02:06:10;;;;;;;12.45;9.95;;;;;;;9.93;100.00;99870.69;5134338;27;20034;-75
2023/04/20 02:08:35;;;;;;;13.25;9.75;;;;;;;10.08;100.00;99863.50;5134265;27;20042;-74
2023/04/20 02:11:01;;;;;;;12.25;9.55;;;;;;;9.76;100.00;99822.09;5115959;27;20031;-74
2023/04/20 02:13:27;;;;;;;12.60;10.02;;;;;;;9.93;100.00;99863.09;5115942;27;20027;-74
2023/04/20 02:15:52;;;;;;;14.05;10.63;;;;;;;10.04;100.00;99892.38;5115882;27;20024;-75
2023/04/20 02:18:18;;;;;;;14.65;11.70;;;;;;;9.89;100.00;99905.50;5133691;27;20031;-75
2023/04/20 02:20:44;;;;;;;9.88;8.50;;;;;;;9.72;100.00;99907.66;5135088;27;20459;-76
2023/04/20 02:23:10;;;;;;;11.63;8.50;;;;;;;10.19;100.00;99917.41;5115856;27;20076;-76
2023/04/20 02:25:38;;;;;;;10.60;8.82;;;;;;;10.10;100.00;99919.38;5116775;27;20027;-76
2023/04/20 02:28:04;;;;;;;10.40;8.75;;;;;;;9.80;100.00;99859.22;5134420;27;20035;-76
2023/04/20 02:30:30;;;;;;;12.13;9.55;;;;;;;10.07;100.00;99935.50;5115871;27;20103;-75
2023/04/20 02:32:55;;;;;;;10.65;9.55;;;;;;;9.38;100.00;99829.03;5133975;27;20037;-76
2023/04/20 02:35:21;;;;;;;12.02;8.57;;;;;;;9.88;100.00;99944.47;5133161;27;20541;-76
2023/04/20 02:37:48;;;;;;;10.07;8.90;;;;;;;9.82;100.00;99972.56;5132956;27;20042;-76
2023/04/20 02:40:14;;;;;;;10.07;9.07;;;;;;;9.87;100.00;100013.88;5133070;27;20112;-76
2023/04/20 02:42:39;;;;;;;11.02;8.98;;;;;;;10.01;100.00;100003.38;5133589;27;20821;-76
2023/04/20 02:45:06;;;;;;;11.43;9.73;;;;;;;10.02;100.00;100013.50;5133224;27;20031;-75
2023/04/20 02:47:31;;;;;;;11.10;9.23;;;;;;;9.89;100.00;100006.22;5132402;27;20409;-76
2023/04/20 02:49:57;;;;;;;9.65;8.38;;;;;;;9.94;100.00;99963.78;5133842;27;20027;-76
2023/04/20 02:52:23;;;;;;;11.65;7.88;;;;;;;9.38;100.00;99960.94;5134060;27;20031;-75
2023/04/20 02:54:48;;;;;;;9.98;8.82;;;;;;;9.97;100.00;100044.97;5132817;27;20023;-75
2023/04/20 02:57:13;;;;;;;11.23;8.68;;;;;;;10.08;100.00;100033.66;5133851;27;20039;-74
2023/04/20 02:59:39;;;;;;;10.60;8.50;;;;;;;10.06;100.00;100026.97;5131969;27;20043;-76
2023/04/20 03:02:06;;;;;;;12.88;8.70;;;;;;;10.10;100.00;100028.59;5113032;27;20047;-74
2023/04/20 03:04:31;;;;;;;13.52;8.05;;;;;;;9.70;100.00;99977.94;5099845;27;20027;-75
2023/04/20 03:06:57;;;;;;;14.38;9.23;;;;;;;10.11;100.00;100048.88;5132880;27;20035;-75
2023/04/20 03:09:23;;;;;;;13.50;9.82;;;;;;;9.75;100.00;100034.50;5132023;27;20094;-75
2023/04/20 03:11:49;;;;;;;13.55;9.52;;;;;;;9.99;100.00;100048.28;5132162;27;20617;-74
2023/04/20 03:14:14;;;;;;;12.10;9.50;;;;;;;9.75;100.00;100052.25;5113983;27;20024;-76
2023/04/20 03:16:40;;;;;;;12.38;9.10;;;;;;;9.83;100.00;100050.38;5116483;27;20481;-76
2023/04/20 03:19:06;;;;;;;13.20;9.77;;;;;;;9.64;100.00;100046.63;5131998;27;20027;-73
2023/04/20 03:21:32;;;;;;;14.27;8.98;;;;;;;9.44;100.00;100013.25;5118955;27;20023;-76
2023/04/20 03:23:58;;;;;;;13.93;9.43;;;;;;;9.73;100.00;100081.09;5131563;27;20096;-75
2023/04/20 03:26:24;;;;;;;13.95;9.52;;;;;;;9.29;100.00;100019.47;5119134;27;20038;-76
2023/04/20 03:28:50;;;;;;;13.98;10.10;;;;;;;9.59;100.00;100101.69;5133706;27;20090;-76
2023/04/20 03:31:16;;;;;;;13.00;8.25;;;;;;;8.55;100.00;99982.22;5112589;27;20027;-76
2023/04/20 03:33:41;;;;;;;12.98;8.82;;;;;;;9.51;100.00;100108.66;5114653;27;20444;-76
2023/04/20 03:36:08;;;;;;;11.35;9.00;;;;;;;10.27;100.00;100065.41;5130633;27;20471;-77
2023/04/20 03:38:34;;;;;;;14.23;9.65;;;;;;;9.49;100.00;100130.69;5135457;27;20399;-77
2023/04/20 03:40:59;;;;;;;13.82;9.80;;;;;;;9.41;100.00;100092.78;5134853;27;20109;-75
2023/04/20 03:43:25;;;;;;;14.57;10.48;;;;;;;9.17;100.00;100085.69;5133911;27;20123;-78
2023/04/20 03:45:50;;;;;;;17.40;9.93;;;;;;;9.28;100.00;100093.09;5114181;28;20489;-82
2023/04/20 03:48:16;;;;;;;14.70;10.32;;;;;;;9.14;100.00;100092.53;5128606;27;20043;-81
2023/04/20 03:50:41;;;;;;;11.60;8.90;;;;;;;9.26;100.00;100112.56;5113511;28;20034;-83
2023/04/20 03:53:06;;;;;;;11.43;8.85;;;;;;;9.37;100.00;100143.63;5132043;28;20148;-83
2023/04/20 03:55:32;;;;;;;11.27;8.38;;;;;;;9.51;100.00;100221.16;5113540;28;20087;-84
2023/04/20 03:57:57;;;;;;;11.10;8.32;;;;;;;9.36;100.00;100304.34;5131251;28;20061;-79
2023/04/20 04:00:23;;;;;;;8.93;7.50;;;;;;;9.26;100.00;100268.16;5131308;28;20047;-83
2023/04/20 04:02:48;;;;;;;12.05;8.68;;;;;;;9.42;100.00;100305.06;5132002;28;20038;-83
2023/04/20 04:05:14;;;;;;;13.38;8.80;;;;;;;9.42;100.00;100322.84;5114538;27;20114;-84
2023/04/20 04:07:40;;;;;;;13.48;8.75;;;;;;;9.45;100.00;100320.22;5136554;27;20465;-84
2023/04/20 04:10:06;;;;;;;19.50;10.10;;;;;;;9.10;100.00;100273.50;5118174;27;20031;-85
2023/04/20 04:12:31;;;;;;;22.50;11.38;;;;;;;9.47;100.00;100343.88;5135534;27;20486;-85
2023/04/20 04:14:57;;;;;;;25.35;10.93;;;;;;;9.48;100.00;100326.94;5117390;27;20027;-82
2023/04/20 04:17:22;;;;;;;20.27;11.02;;;;;;;9.79;100.00;100344.97;5136063;27;20130;-76
2023/04/20 04:19:48;;;;;;;19.42;9.75;;;;;;;9.39;100.00;100291.56;5136037;27;20031;-79
2023/04/20 04:22:13;;;;;;;18.77;10.07;;;;;;;9.61;100.00;100326.69;5117950;27;20118;-75
2023/04/20 04:24:40;;;;;;;13.35;10.05;;;;;;;9.58;100.00;100303.09;5135171;27;20059;-81
2023/04/20 04:27:06;;;;;;;11.70;7.32;;;;;;;10.07;100.00;100366.44;5118010;27;20096;-77
2023/04/20 04:29:34;;;;;;;11.20;7.80;;;;;;;10.12;100.00;100362.16;5135920;27;20114;-80
2023/04/20 04:32:04;;;;;;;15.68;10.15;;;;;;;9.83;100.00;100304.28;5135599;27;20023;-77
2023/04/20 04:34:30;;;;;;;25.73;16.58;;;;;;;10.23;100.00;100361.06;5135936;27;20510;-79
2023/04/20 04:36:56;;;;;;;13.23;9.13;;;;;;;10.28;100.00;100355.91;5117221;27;20033;-76
2023/04/20 04:39:22;;;;;;;13.10;9.50;;;;;;;10.36;100.00;100371.78;5136308;27;20064;-78
2023/04/20 04:41:48;;;;;;;11.43;8.95;;;;;;;9.94;100.00;100261.75;5117158;27;20092;-79
2023/04/20 04:44:17;;;;;;;21.20;15.60;;;;;;;10.00;100.00;100307.28;5134619;27;20479;-82
2023/04/20 04:46:44;;;;;;;17.80;12.35;;;;;;;11.36;100.00;100383.06;5141391;27;20031;-77
2023/04/20 04:49:10;;;;;;;49.80;44.47;;;;;;;11.17;100.00;100380.13;5118149;27;20083;-83
2023/04/20 04:51:36;;;;;;;42.60;36.20;;;;;;;10.64;100.00;100367.81;5137146;27;20023;-84
2023/04/20 04:54:02;;;;;;;31.83;23.58;;;;;;;10.77;100.00;100374.31;5117748;27;20041;-83
2023/04/20 04:56:27;;;;;;;20.33;15.43;;;;;;;10.23;100.00;100261.97;5134011;27;20038;-82
2023/04/20 04:58:53;;;;;;;12.45;9.27;;;;;;;10.81;100.00;100357.25;5135618;27;20051;-84
2023/04/20 05:01:19;;;;;;;14.15;10.90;;;;;;;10.82;100.00;100358.91;5134954;27;20027;-81
2023/04/20 05:03:45;;;;;;;29.50;21.80;;;;;;;10.75;100.00;100368.41;5134689;27;20035;-85
2023/04/20 05:06:11;;;;;;;21.90;16.33;;;;;;;11.03;100.00;100366.88;5135284;27;20027;-85
2023/04/20 05:08:36;;;;;;;18.95;11.93;;;;;;;11.02;100.00;100379.66;5135115;27;20027;-81
2023/04/20 05:11:01;;;;;;;16.50;11.02;;;;;;;10.38;100.00;100311.59;5135124;27;20045;-81
2023/04/20 05:13:27;;;;;;;16.63;10.80;;;;;;;10.28;100.00;100269.50;5151818;27;20473;-80
2023/04/20 05:15:55;;;;;;;15.32;10.65;;;;;;;11.01;100.00;100378.81;5135950;27;20023;-81
2023/04/20 05:18:21;;;;;;;12.35;9.75;;;;;;;11.29;100.00;100376.44;5134233;27;20060;-81
2023/04/20 05:20:46;;;;;;;11.32;9.10;;;;;;;11.09;100.00;100315.03;5135076;27;20039;-81
2023/04/20 05:23:11;;;;;;;14.93;11.27;;;;;;;11.09;100.00;100302.31;5116788;27;20497;-82
2023/04/20 05:25:37;;;;;;;13.75;9.82;;;;;;;11.45;100.00;100331.91;5135512;27;20401;-82
2023/04/20 05:28:02;;;;;;;14.15;10.38;;;;;;;11.22;100.00;100349.47;5135432;27;20074;-82
2023/04/20 05:30:28;;;;;;;12.95;10.05;;;;;;;11.77;100.00;100354.84;5135561;27;20035;-80
2023/04/20 05:32:53;;;;;;;15.18;10.40;;;;;;;12.45;100.00;100357.19;5135154;27;20038;-82
2023/04/20 05:35:21;;;;;;;18.73;10.68;;;;;;;12.15;100.00;100341.91;5136043;27;20039;-81
2023/04/20 05:37:47;;;;;;;13.80;9.88;;;;;;;11.20;100.00;100234.16;5135228;27;20117;-81
2023/04/20 05:40:12;;;;;;;11.35;9.63;;;;;;;11.33;100.00;100277.06;5117350;27;20099;-81
2023/04/20 05:42:38;;;;;;;12.55;9.25;;;;;;;11.53;100.00;100331.75;5135024;27;20035;-81
2023/04/20 05:45:04;;;;;;;10.32;8.90;;;;;;;11.56;100.00;100309.56;5134833;27;20035;-80
2023/04/20 05:47:29;;;;;;;13.07;9.13;;;;;;;11.79;100.00;100320.00;5134154;27;20058;-79
2023/04/20 05:49:55;;;;;;;14.35;9.75;;;;;;;11.66;100.00;100312.72;5134930;27;20028;-87
2023/04/20 05:52:20;;;;;;;11.95;9.13;;;;;;;11.57;100.00;100308.69;5135223;27;20023;-83
2023/04/20 05:54:46;;;;;;;15.85;10.05;;;;;;;11.74;100.00;100293.81;5135271;27;20027;-84
2023/04/20 05:57:11;;;;;;;13.55;9.35;;;;;;;11.91;100.00;100238.13;5116542;27;20067;-80
2023/04/20 05:59:37;;;;;;;19.95;9.55;;;;;;;12.56;100.00;100217.41;5135150;27;20062;-82
2023/04/20 06:02:02;;;;;;;12.15;9.23;;;;;;;13.11;100.00;100268.38;5134922;27;20114;-81
2023/04/20 06:04:29;;;;;;;10.88;8.27;;;;;;;13.08;100.00;100184.22;5116446;27;20111;-80
2023/04/20 06:06:54;;;;;;;13.20;8.98;;;;;;;13.84;100.00;100218.84;5117790;27;20570;-81
2023/04/20 06:09:20;;;;;;;13.60;10.43;;;;;;;14.28;100.00;100183.94;5116724;27;20035;-82
2023/04/20 06:11:45;;;;;;;12.73;9.23;;;;;;;14.29;100.00;100080.78;5116527;27;20023;-83
2023/04/20 06:14:12;;;;;;;10.43;8.40;;;;;;;14.68;100.00;100088.47;5135273;27;20026;-82
2023/04/20 06:16:38;;;;;;;13.13;10.45;;;;;;;14.63;100.00;100000.84;5135253;27;20031;-82
2023/04/20 06:19:03;;;;;;;14.55;10.13;;;;;;;14.61;100.00;99897.75;5116101;27;20027;-81
2023/04/20 06:21:29;;;;;;;16.52;10.90;;;;;;;15.09;100.00;99864.75;5133547;27;20417;-79
2023/04/20 06:23:55;;;;;;;10.73;8.23;;;;;;;14.81;100.00;99795.28;5116112;27;20492;-80
2023/04/20 06:26:20;;;;;;;10.98;7.80;;;;;;;15.19;100.00;99801.88;5134913;27;20110;-81
2023/04/20 06:28:47;;;;;;;8.75;7.85;;;;;;;15.23;100.00;99728.31;5133623;27;20039;-81
2023/04/20 06:31:12;;;;;;;10.63;7.32;;;;;;;15.14;100.00;99704.00;5134364;27;20035;-82
2023/04/20 06:33:38;;;;;;;11.43;7.55;;;;;;;16.09;100.00;99687.81;5115675;27;20035;-81
2023/04/20 06:36:07;;;;;;;9.60;7.20;;;;;;;15.56;100.00;99718.91;5115795;27;20053;-83
2023/04/20 06:38:32;;;;;;;11.15;6.93;;;;;;;15.13;100.00;99725.38;5115837;27;20125;-84
2023/04/20 06:41:00;;;;;;;11.30;7.47;;;;;;;14.96;100.00;99722.84;5115452;27;20063;-83
2023/04/20 06:43:26;;;;;;;9.05;7.68;;;;;;;14.01;100.00;99676.31;5116203;27;20027;-81
2023/04/20 06:45:51;;;;;;;9.63;8.13;;;;;;;14.75;100.00;99649.69;5133619;27;20038;-82
2023/04/20 06:48:17;;;;;;;7.85;6.85;;;;;;;14.97;100.00;99687.84;5115487;27;20546;-82
2023/04/20 06:50:42;;;;;;;9.85;7.20;;;;;;;15.43;100.00;99697.41;5116002;27;20023;-82
2023/04/20 06:53:07;;;;;;;10.25;7.00;;;;;;;15.66;100.00;99589.38;5133579;27;20043;-82
2023/04/20 06:55:33;;;;;;;8.68;6.68;;;;;;;14.71;100.00;99623.44;5134470;27;20110;-81
2023/04/20 06:57:59;;;;;;;9.10;6.80;;;;;;;15.47;100.00;99643.34;5115363;27;20203;-81
2023/04/20 07:00:27;;;;;;;12.60;6.82;;;;;;;16.22;100.00;99617.00;5129575;27;20403;-77
2023/04/20 07:02:52;;;;;;;8.93;6.10;;;;;;;15.97;100.00;99671.38;5113079;28;20100;-82
2023/04/20 07:05:18;;;;;;;10.35;6.85;;;;;;;16.50;100.00;99588.84;5113088;28;20497;-79
2023/04/20 07:07:44;;;;;;;7.97;6.03;;;;;;;16.20;100.00;99613.69;5111955;28;20055;-79
2023/04/20 07:10:11;;;;;;;7.63;6.20;;;;;;;16.56;100.00;99590.25;5113184;28;20035;-79
2023/04/20 07:12:38;;;;;;;9.52;6.78;;;;;;;16.58;100.00;99639.75;5094237;28;20190;-80
2023/04/20 07:15:05;;;;;;;9.60;7.40;;;;;;;17.13;100.00;99579.06;5112712;28;20082;-80
2023/04/20 07:17:31;;;;;;;7.20;5.68;;;;;;;15.93;100.00;99576.75;5112040;28;20080;-83
2023/04/20 07:19:57;;;;;;;12.07;8.50;;;;;;;16.77;100.00;99638.59;5112596;28;20035;-79
2023/04/20 07:22:23;;;;;;;12.10;8.50;;;;;;;18.07;100.00;99617.66;5113006;28;20530;-79
2023/04/20 07:24:49;;;;;;;8.70;6.50;;;;;;;16.38;100.00;99589.56;5111693;28;20512;-78
2023/04/20 07:27:14;;;;;;;7.88;6.47;;;;;;;17.26;100.00;99623.63;5110938;28;20028;-79
2023/04/20 07:29:40;;;;;;;7.50;6.45;;;;;;;16.75;100.00;99625.00;5111259;28;20023;-76
2023/04/20 07:32:05;;;;;;;9.90;6.63;;;;;;;17.78;100.00;99616.94;5113051;28;20031;-79
2023/04/20 07:34:31;;;;;;;10.40;6.75;;;;;;;18.38;100.00;99588.97;5094431;28;20027;-78
2023/04/20 07:36:56;;;;;;;10.27;6.60;;;;;;;18.20;100.00;99531.03;5110859;28;20484;-79
2023/04/20 07:39:24;;;;;;;9.68;6.47;;;;;;;17.53;100.00;99531.97;5111328;28;20474;-82
2023/04/20 07:41:49;;;;;;;7.97;6.72;;;;;;;17.52;100.00;99592.03;5113405;27;20478;-78
2023/04/20 07:44:14;;;;;;;9.88;7.05;;;;;;;17.93;100.00;99517.38;5132523;27;20099;-80
2023/04/20 07:46:40;;;;;;;6.13;5.53;;;;;;;16.75;100.00;99527.44;5131790;27;20027;-76
2023/04/20 07:49:06;;;;;;;10.98;9.45;;;;;;;18.19;100.00;99513.91;5114772;27;20394;-77
2023/04/20 07:51:33;;;;;;;8.02;6.68;;;;;;;17.01;100.00;99510.44;5133239;27;20088;-76
2023/04/20 07:53:58;;;;;;;7.97;6.97;;;;;;;18.86;100.00;99559.97;5114819;28;20031;-76
2023/04/20 07:56:24;;;;;;;9.27;8.18;;;;;;;18.24;100.00;99511.06;5132194;28;20134;-76
2023/04/20 07:58:50;;;;;;;8.02;7.22;;;;;;;17.82;100.00;99608.13;5114321;28;20394;-78
2023/04/20 08:01:25;;;;;;;6.75;6.10;;;;;;;18.97;100.00;99591.00;5132282;28;20107;-78
2023/04/20 08:03:51;;;;;;;7.43;6.72;;;;;;;18.88;100.00;99583.03;5132448;28;20029;-77
2023/04/20 08:06:16;;;;;;;7.43;6.72;;;;;;;18.79;100.00;99587.09;5114338;28;20023;-76
2023/04/20 08:08:42;;;;;;;6.63;5.93;;;;;;;19.38;100.00;99530.59;5132253;28;20035;-83
2023/04/20 08:11:07;;;;;;;11.25;7.50;;;;;;;19.93;100.00;99584.22;5132531;28;20027;-79
2023/04/20 08:13:34;;;;;;;8.15;6.10;;;;;;;18.80;100.00;99544.09;5132717;28;20459;-81
2023/04/20 08:16:00;;;;;;;6.75;5.85;;;;;;;19.60;100.00;99598.59;5114101;28;20325;-76
2023/04/20 08:18:25;;;;;;;7.90;5.90;;;;;;;20.04;100.00;99589.41;5132683;28;20023;-79
2023/04/20 08:20:51;;;;;;;7.63;6.20;;;;;;;20.05;100.00;99604.78;5132130;28;20062;-80
2023/04/20 08:23:16;;;;;;;7.70;6.18;;;;;;;19.65;100.00;99624.03;5132340;28;20058;-81
2023/04/20 08:25:41;;;;;;;6.80;6.13;;;;;;;19.73;100.00;99620.00;5113871;28;20035;-81
2023/04/20 08:28:07;;;;;;;8.88;6.30;;;;;;;18.87;100.00;99618.31;5132056;28;20122;-81
2023/04/20 08:30:32;;;;;;;6.88;6.18;;;;;;;19.67;100.00;99591.22;5131950;28;20031;-83
2023/04/20 08:32:58;;;;;;;8.52;5.78;;;;;;;19.79;100.00;99652.25;5114389;28;20045;-81
2023/04/20 08:35:24;;;;;;;7.80;5.63;;;;;;;19.86;100.00;99649.16;5132167;28;20065;-81
2023/04/20 08:37:49;;;;;;;7.88;5.93;;;;;;;19.64;100.00;99661.09;5132509;28;20119;-80
2023/04/20 08:40:18;;;;;;;6.68;6.05;;;;;;;19.41;100.00;99673.00;5132698;28;20057;-79
2023/04/20 08:42:45;;;;;;;6.28;5.60;;;;;;;20.15;100.00;99667.69;5132102;28;20031;-79
2023/04/20 08:45:11;;;;;;;8.65;6.75;;;;;;;18.87;100.00;99608.00;5131829;28;20552;-80
2023/04/20 08:47:37;;;;;;;7.65;5.85;;;;;;;20.31;100.00;99681.19;5114000;28;20402;-78
2023/04/20 08:50:04;;;;;;;9.63;6.28;;;;;;;19.98;100.00;99582.94;5132633;28;20034;-79
2023/04/20 08:52:31;;;;;;;6.72;5.93;;;;;;;18.58;100.00;99585.13;5132685;27;20142;-79
2023/04/20 08:54:56;;;;;;;8.50;5.93;;;;;;;19.99;100.00;99623.28;5135612;27;20031;-79
2023/04/20 08:57:22;;;;;;;7.78;5.50;;;;;;;20.54;100.00;99747.50;5135964;27;20119;-78
2023/04/20 08:59:47;;;;;;;8.27;5.88;;;;;;;20.31;100.00;99737.16;5117548;27;20047;-79
2023/04/20 09:02:13;;;;;;;8.20;6.28;;;;;;;19.16;100.00;99749.50;5117184;27;20027;-80
2023/04/20 09:04:39;;;;;;;7.78;6.50;;;;;;;18.56;100.00;99752.59;5116692;27;20038;-80
2023/04/20 09:07:06;;;;;;;8.50;5.85;;;;;;;19.47;100.00;99749.13;5117416;27;20088;-81
2023/04/20 09:09:32;;;;;;;7.80;6.80;;;;;;;19.48;100.00;100024.97;5117612;27;20023;-83
2023/04/20 09:12:09;;;;;;;7.97;6.20;;;;;;;21.08;100.00;100383.09;5117330;27;20034;-84
2023/04/20 09:14:45;;;;;;;7.20;6.50;;;;;;;20.19;100.00;100946.56;5135537;27;20027;-80
2023/04/20 09:17:13;;;;;;;9.38;6.28;;;;;;;19.88;100.00;101990.38;5135874;27;20042;-82
2023/04/20 09:19:40;;;;;;;6.65;5.72;;;;;;;19.76;100.00;102187.00;5135975;27;20027;-84
2023/04/20 09:22:05;;;;;;;7.65;6.28;;;;;;;20.31;100.00;102603.06;5117512;27;20031;-78
2023/04/20 09:24:36;;;;;;;8.23;6.00;;;;;;;20.32;100.00;102557.38;5117762;27;20236;-78
2023/04/20 09:27:15;;;;;;;9.20;5.95;;;;;;;21.19;100.00;102575.59;5135849;27;20023;-80
2023/04/20 09:29:41;;;;;;;7.13;6.40;;;;;;;19.86;100.00;102451.81;5117017;27;20118;-77
2023/04/20 09:32:06;;;;;;;6.75;6.05;;;;;;;21.22;100.00;102201.94;5116803;27;20060;-82
2023/04/20 09:34:44;;;;;;;8.85;6.22;;;;;;;21.25;100.00;101742.00;5116602;27;20030;-78
2023/04/20 09:37:13;;;;;;;7.35;6.22;;;;;;;19.88;100.00;101510.94;5117074;27;20031;-79
2023/04/20 09:39:42;;;;;;;16.00;12.55;;;;;;;20.79;100.00;101260.47;5135339;27;20047;-80
2023/04/20 09:42:11;;;;;;;7.57;6.22;;;;;;;21.22;100.00;100892.63;5134370;27;20031;-85
2023/04/20 09:44:37;;;;;;;8.80;7.90;;;;;;;21.76;100.00;100537.31;5096391;28;20023;-80
2023/04/20 09:47:04;;;;;;;8.00;6.75;;;;;;;21.76;100.00;100275.81;5096204;28;20130;-81
2023/04/20 09:49:31;;;;;;;8.00;5.93;;;;;;;21.53;100.00;100052.25;5096034;28;20130;-75
2023/04/20 09:51:57;;;;;;;6.32;5.70;;;;;;;20.66;100.00;100379.69;5096041;28;20024;-79
2023/04/20 09:54:23;;;;;;;7.97;6.40;;;;;;;20.25;100.00;100355.63;5114460;28;20031;-80
2023/04/20 09:56:48;;;;;;;6.45;5.70;;;;;;;20.39;100.00;100474.44;5114972;28;20132;-78
2023/04/20 09:59:18;;;;;;;6.05;5.30;;;;;;;20.41;100.00;100906.63;5095897;28;20085;-79
2023/04/20 10:01:43;;;;;;;8.75;6.20;;;;;;;22.06;100.00;101433.44;5096032;28;20081;-80
2023/04/20 10:04:09;;;;;;;6.30;5.47;;;;;;;22.20;100.00;101621.00;5095297;28;20035;-81
2023/04/20 10:06:36;;;;;;;7.50;5.90;;;;;;;21.13;100.00;101445.03;5096313;28;20413;-80
2023/04/20 10:09:03;;;;;;;7.60;5.63;;;;;;;21.89;100.00;101557.81;5095744;28;20042;-78
2023/04/20 10:11:32;;;;;;;6.63;5.40;;;;;;;22.30;100.00;101583.31;5096529;28;20032;-82
2023/04/20 10:14:00;;;;;;;10.20;5.10;;;;;;;20.40;100.00;101124.56;5096319;28;20020;-84
2023/04/20 10:16:26;;;;;;;6.35;5.75;;;;;;;21.37;100.00;101001.28;5113767;28;20497;-81
2023/04/20 10:19:03;;;;;;;6.65;5.68;;;;;;;22.63;100.00;100739.75;5096053;28;20058;-79
2023/04/20 10:21:31;;;;;;;6.95;6.22;;;;;;;21.35;100.00;100259.72;5113929;28;20072;-80
2023/04/20 10:23:59;;;;;;;10.15;5.72;;;;;;;21.48;100.00;100102.69;5095836;28;20034;-80
2023/04/20 10:26:36;;;;;;;6.10;5.50;;;;;;;20.32;100.00;99883.44;5114006;28;20031;-79
2023/04/20 10:29:02;;;;;;;6.55;5.88;;;;;;;21.10;100.00;100016.59;5095123;28;20032;-79
2023/04/20 10:31:40;;;;;;;6.88;6.18;;;;;;;19.80;100.00;99814.72;5113701;28;20027;-79
2023/04/20 10:34:07;;;;;;;8.48;7.20;;;;;;;20.42;100.00;99806.97;5095808;28;20030;-79
2023/04/20 10:36:36;;;;;;;6.95;6.13;;;;;;;20.01;100.00;99781.44;5095577;28;20179;-79
2023/04/20 10:39:18;;;;;;;8.57;6.93;;;;;;;19.18;100.00;99667.75;5095132;28;20027;-78
2023/04/20 10:42:00;;;;;;;;;;;;;;;20.24;100.00;99803.94;5095682;28;20032;-78
2023/04/20 10:44:25;;;;;;;6.68;5.97;;;;;;;19.82;100.00;99768.19;5095431;28;19920;-81
2023/04/20 10:46:51;;;;;;;10.18;6.15;;;;;;;19.59;100.00;99817.94;5095068;28;20031;-77
2023/04/20 10:49:17;;;;;;;9.38;6.10;;;;;;;19.97;100.00;99816.13;5095005;28;20035;-80
2023/04/20 10:51:48;;;;;;;5.90;5.30;;;;;;;19.45;100.00;99307.47;5113443;28;20102;-77
2023/04/20 10:54:13;;;;;;;7.17;5.33;;;;;;;20.72;100.00;99304.28;5129476;27;20043;-79
2023/04/20 10:56:45;;;;;;;7.78;5.72;;;;;;;19.91;100.00;99204.97;5112963;28;20036;-76
2023/04/20 10:59:16;;;;;;;7.50;5.80;;;;;;;20.52;100.00;99167.38;5094708;28;20052;-79
2023/04/20 11:01:42;;;;;;;12.80;6.40;;;;;;;20.31;100.00;99149.25;5128988;27;20050;-81
2023/04/20 11:04:12;;;;;;;7.65;5.57;;;;;;;20.53;100.00;99187.91;5094525;28;20092;-78
2023/04/20 11:06:39;;;;;;;5.07;4.50;;;;;;;19.82;100.00;99231.50;5112923;28;20028;-78
2023/04/20 11:09:25;;;;;;;5.88;4.55;;;;;;;19.73;100.00;99335.38;5094510;28;20043;-82
2023/04/20 11:12:04;;;;;;;6.18;4.95;;;;;;;21.01;100.00;99485.53;5112774;28;20024;-79
2023/04/20 11:14:31;;;;;;;6.55;5.20;;;;;;;20.21;100.00;99440.09;5094033;28;20089;-79